Main page
METAR-TAF:

METAR-TAF

Airports :

Seychelles International Airport

Victoria, Mahé, Seychelles

latitude: 04-40S, longitude: 055-31E, elevation: 3 m

Current weather observation

The report was made 23 minutes ago, at 04:00 UTC
Wind 9 kt from the Southeast
Temperature 28°C
Humidity 79%
Pressure 1014 hPa
Visibility 10 km or more
Scattered clouds at a height of 1800 ft

METAR: FSIA 170400Z 13009KT 9999 SCT018 28/24 Q1014 NOSIG

Time: 08:23 (04:23 UTC)

Forecast

The report was made 5 hours and 24 minutes ago, at 22:59 UTC
Forecast valid from 17 at 00 UTC to 17 at 24 UTC
Wind 10 kt from the Southeast
Visibility 10 km or more
Scattered clouds at a height of 1800 ft
Probability 40% :
Temporary
from 17 at 10 UTC to 17 at 14 UTC
Broken clouds at a height of 1600 ft
light rain showers

TAF: FSIA 162259Z 1700/1724 13010KT 9999 SCT018 PROB40 TEMPO 1710/1714 -SHRA BKN016

Weather observations and forecasts of more than 4000 airports (METAR and TAF reports).

The available stations are represented by yellow and red dots on the map.

Hover mouse over dot to see the name of the station.

Then click to see weather observations and forecasts.

To change the map : click on the green buttons with a black cross to zoom in, on the green button with a dash to zoom out, or on the green arrows for adjacent maps.


METAR-TAF: